Time;durP1;ratioP1;P1;durP2;ratioP2;P2;SDS_P1;SDS_P2;PMS_P1;PMS_P2;Temp;Humidity;BMP_temperature;BMP_pressure;BME280_temperature;BME280_humidity;BME280_pressure;Samples;Min_cycle;Max_cycle;Signal;HPM_P1;HPM_P2
2023/01/02 00:00:34;;;;;;;11.57;8.17;;;12.80;99.90;;;;;;4987567;28;20669;-70
2023/01/02 00:03:01;;;;;;;10.53;8.87;;;12.80;99.90;;;;;;4987446;28;20289;-70
2023/01/02 00:05:28;;;;;;;12.57;7.93;;;12.80;99.90;;;;;;4987846;28;20238;-70
2023/01/02 00:07:55;;;;;;;12.30;8.37;;;12.80;99.90;;;;;;4987841;28;20265;-70
2023/01/02 00:10:22;;;;;;;15.37;9.40;;;12.80;99.90;;;;;;4987933;28;20242;-70
2023/01/02 00:12:50;;;;;;;12.37;8.93;;;12.80;99.90;;;;;;4988026;28;20301;-70
2023/01/02 00:15:17;;;;;;;11.97;8.10;;;12.80;99.90;;;;;;4982559;28;20947;-70
2023/01/02 00:17:44;;;;;;;11.80;8.70;;;12.70;99.90;;;;;;4987465;28;20310;-70
2023/01/02 00:20:11;;;;;;;9.50;7.67;;;12.80;99.90;;;;;;4987278;28;20301;-70
2023/01/02 00:22:38;;;;;;;12.03;7.90;;;12.80;99.90;;;;;;4987446;28;20301;-70
2023/01/02 00:25:06;;;;;;;13.00;8.00;;;12.80;99.90;;;;;;4987587;28;20777;-70
2023/01/02 00:27:33;;;;;;;10.57;7.27;;;12.80;99.90;;;;;;4987538;28;20302;-70
2023/01/02 00:30:01;;;;;;;7.87;5.60;;;12.80;99.90;;;;;;4983509;28;20572;-70
2023/01/02 00:32:28;;;;;;;8.13;4.80;;;12.80;99.90;;;;;;4987155;28;20305;-70
2023/01/02 00:34:55;;;;;;;7.73;4.47;;;12.80;99.90;;;;;;4987749;28;20305;-70
2023/01/02 00:37:21;;;;;;;7.20;4.00;;;12.90;99.90;;;;;;4987199;28;20743;-70
2023/01/02 00:39:48;;;;;;;4.83;3.63;;;12.90;99.90;;;;;;4987163;28;20212;-70
2023/01/02 00:42:15;;;;;;;5.90;3.60;;;12.90;99.90;;;;;;4987189;28;20693;-70
2023/01/02 00:44:42;;;;;;;6.03;3.40;;;12.90;99.90;;;;;;4987429;28;20775;-70
2023/01/02 00:47:10;;;;;;;3.80;3.23;;;12.90;99.90;;;;;;4989797;28;20297;-69
2023/01/02 00:49:37;;;;;;;8.80;3.37;;;12.90;99.90;;;;;;4990844;28;20294;-70
2023/01/02 00:52:07;;;;;;;6.60;3.57;;;13.00;99.90;;;;;;4990492;28;20213;-70
2023/01/02 00:54:34;;;;;;;4.17;3.77;;;13.00;99.90;;;;;;4990808;28;20359;-70
2023/01/02 00:57:01;;;;;;;6.13;3.60;;;13.00;99.90;;;;;;4990687;28;20233;-70
2023/01/02 00:59:28;;;;;;;6.67;3.50;;;12.90;99.90;;;;;;4990679;28;20228;-70
2023/01/02 01:01:55;;;;;;;7.20;3.27;;;12.90;99.90;;;;;;4990706;28;20296;-70
2023/01/02 01:04:23;;;;;;;4.77;3.03;;;13.00;99.90;;;;;;4990665;28;20322;-70
2023/01/02 01:06:50;;;;;;;5.83;3.23;;;12.90;99.90;;;;;;4990431;28;20301;-70
2023/01/02 01:09:18;;;;;;;6.63;2.90;;;12.90;99.90;;;;;;4990770;28;20308;-70
2023/01/02 01:11:45;;;;;;;3.87;3.17;;;12.90;99.90;;;;;;4983494;28;20218;-70
2023/01/02 01:14:12;;;;;;;5.07;3.13;;;12.90;99.90;;;;;;4981122;28;20321;-70
2023/01/02 01:16:39;;;;;;;5.13;3.03;;;12.90;99.90;;;;;;4990477;28;20233;-70
2023/01/02 01:19:05;;;;;;;5.00;3.10;;;12.90;99.90;;;;;;4990154;28;20297;-70
2023/01/02 01:21:34;;;;;;;5.73;3.30;;;12.90;99.90;;;;;;4990246;28;20241;-70
2023/01/02 01:24:01;;;;;;;9.73;3.40;;;12.90;99.90;;;;;;4989932;28;21024;-70
2023/01/02 01:26:27;;;;;;;4.70;3.43;;;12.90;99.90;;;;;;4986060;28;20522;-69
2023/01/02 01:28:55;;;;;;;5.87;3.13;;;12.90;99.90;;;;;;4990232;28;20285;-69
2023/01/02 01:31:23;;;;;;;5.70;2.93;;;12.90;99.90;;;;;;4990049;28;20675;-70
2023/01/02 01:33:50;;;;;;;4.40;3.20;;;12.90;99.90;;;;;;4989891;28;20298;-70
2023/01/02 01:36:18;;;;;;;4.47;2.97;;;12.90;99.90;;;;;;4989643;28;20772;-69
2023/01/02 01:38:47;;;;;;;3.97;2.67;;;12.90;99.90;;;;;;4990122;28;20210;-70
2023/01/02 01:41:16;;;;;;;5.70;3.27;;;12.90;99.90;;;;;;4989653;28;20708;-70
2023/01/02 01:43:45;;;;;;;8.73;3.40;;;12.90;99.90;;;;;;4989674;28;20572;-70
2023/01/02 01:46:21;;;;;;;4.50;2.83;;;12.90;99.90;;;;;;4989879;28;20233;-70
2023/01/02 01:48:52;;;;;;;4.73;3.13;;;12.90;99.90;;;;;;4989829;28;20309;-70
2023/01/02 01:51:20;;;;;;;9.20;3.27;;;12.90;99.90;;;;;;4973068;28;20626;-70
2023/01/02 01:53:52;;;;;;;6.37;3.07;;;13.00;99.90;;;;;;4970325;28;20326;-70
2023/01/02 01:56:19;;;;;;;4.47;3.07;;;12.90;99.90;;;;;;4979454;28;20206;-70
2023/01/02 01:58:46;;;;;;;4.43;2.83;;;12.90;99.90;;;;;;4988539;28;20249;-70
2023/01/02 02:01:15;;;;;;;5.87;3.10;;;13.00;99.90;;;;;;4989699;28;20301;-70
2023/01/02 02:03:45;;;;;;;5.50;3.07;;;13.00;99.90;;;;;;4988958;28;20784;-71
2023/01/02 02:06:12;;;;;;;6.73;3.47;;;13.00;99.90;;;;;;4989666;28;20370;-70
2023/01/02 02:08:46;;;;;;;5.63;2.80;;;13.00;99.90;;;;;;4989513;28;20232;-70
2023/01/02 02:11:15;;;;;;;4.53;2.83;;;13.00;99.90;;;;;;4978400;28;20666;-70
2023/01/02 02:13:42;;;;;;;5.43;3.00;;;13.00;99.90;;;;;;4973397;28;20713;-70
2023/01/02 02:16:26;;;;;;;5.03;3.30;;;12.90;99.90;;;;;;4995504;28;20576;-71
2023/01/02 02:19:28;;;;;;;8.67;2.83;;;12.90;99.90;;;;;;4989338;28;20202;-70
2023/01/02 02:22:16;;;;;;;5.10;2.93;;;13.00;99.90;;;;;;4988419;28;20225;-70
2023/01/02 02:25:23;;;;;;;3.40;3.10;;;13.00;99.90;;;;;;4989364;28;20262;-70
2023/01/02 02:28:14;;;;;;;4.17;3.20;;;13.00;99.90;;;;;;4965636;28;20298;-70
2023/01/02 02:30:51;;;;;;;5.10;3.07;;;13.00;99.90;;;;;;4970027;28;20233;-70
2023/01/02 02:33:33;;;;;;;4.50;3.17;;;13.00;99.90;;;;;;4969172;28;20299;-70
2023/01/02 02:36:05;;;;;;;7.60;3.27;;;13.00;99.90;;;;;;4979166;28;20737;-70
2023/01/02 02:38:54;;;;;;;7.63;3.20;;;12.90;99.90;;;;;;4988909;28;20289;-70
2023/01/02 02:41:32;;;;;;;3.97;2.73;;;12.90;99.90;;;;;;4988370;28;20201;-70
2023/01/02 02:44:09;;;;;;;4.57;2.97;;;12.90;99.90;;;;;;4989096;28;20289;-70
2023/01/02 02:46:47;;;;;;;4.33;3.10;;;13.00;99.90;;;;;;4976621;28;20613;-70
2023/01/02 02:49:26;;;;;;;6.37;3.20;;;12.90;99.90;;;;;;4968881;28;20194;-70
2023/01/02 02:51:59;;;;;;;7.53;3.20;;;13.00;99.90;;;;;;4969285;28;20648;-70
2023/01/02 02:54:35;;;;;;;4.20;2.67;;;13.00;99.90;;;;;;4977900;28;20240;-70
2023/01/02 02:57:05;;;;;;;5.30;3.13;;;12.90;99.90;;;;;;4988344;28;20197;-70
2023/01/02 02:59:34;;;;;;;5.37;2.97;;;13.00;99.90;;;;;;4988701;28;20296;-69
2023/01/02 03:02:03;;;;;;;3.70;3.00;;;13.00;99.90;;;;;;4988314;28;20206;-70
2023/01/02 03:04:30;;;;;;;7.07;3.23;;;13.00;99.90;;;;;;4988160;28;20255;-70
2023/01/02 03:07:15;;;;;;;5.13;3.03;;;13.00;99.90;;;;;;4988421;28;20216;-70
2023/01/02 03:09:50;;;;;;;3.20;2.80;;;13.00;99.90;;;;;;4988301;28;20198;-70
2023/01/02 03:12:28;;;;;;;8.97;3.30;;;13.00;99.90;;;;;;4987622;28;20228;-70
2023/01/02 03:15:03;;;;;;;4.97;3.10;;;13.00;99.90;;;;;;4987930;28;20269;-69
2023/01/02 03:17:47;;;;;;;7.10;3.23;;;13.00;99.90;;;;;;4973260;28;20670;-69
2023/01/02 03:20:18;;;;;;;4.77;3.40;;;13.00;99.90;;;;;;4983661;28;20672;-69
2023/01/02 03:22:50;;;;;;;4.30;3.07;;;13.00;99.90;;;;;;4987253;28;20253;-69
2023/01/02 03:25:18;;;;;;;4.47;3.27;;;13.00;99.90;;;;;;4986655;28;20225;-69
2023/01/02 03:27:48;;;;;;;5.90;3.10;;;13.00;99.90;;;;;;4986613;28;20305;-69
2023/01/02 03:30:19;;;;;;;7.20;3.47;;;13.00;99.90;;;;;;4986528;28;20723;-69
2023/01/02 03:32:52;;;;;;;5.40;3.30;;;13.00;99.90;;;;;;4986178;28;20230;-69
2023/01/02 03:35:24;;;;;;;6.20;3.43;;;13.00;99.90;;;;;;4985923;28;20301;-69
2023/01/02 03:37:55;;;;;;;3.70;3.33;;;13.00;99.90;;;;;;4986334;28;20204;-69
2023/01/02 03:40:26;;;;;;;3.10;2.80;;;13.00;99.90;;;;;;4986011;28;20688;-69
2023/01/02 03:42:58;;;;;;;3.20;3.00;;;13.00;99.90;;;;;;4986140;28;20289;-69
2023/01/02 03:45:29;;;;;;;4.47;3.20;;;13.00;99.90;;;;;;4982947;28;20676;-69
2023/01/02 03:48:03;;;;;;;5.10;3.27;;;13.00;99.90;;;;;;4966351;28;20203;-70
2023/01/02 03:50:34;;;;;;;4.53;3.03;;;13.10;99.90;;;;;;4966527;28;20663;-70
2023/01/02 03:53:01;;;;;;;3.70;3.10;;;13.10;99.90;;;;;;4973439;28;20201;-70
2023/01/02 03:55:31;;;;;;;4.13;3.17;;;13.10;99.90;;;;;;4985597;28;20222;-69
2023/01/02 03:58:05;;;;;;;4.80;3.13;;;13.10;99.90;;;;;;4985383;28;20206;-70
2023/01/02 04:00:39;;;;;;;7.17;3.20;;;13.10;99.90;;;;;;4973416;28;20684;-69
2023/01/02 04:03:12;;;;;;;4.90;3.57;;;13.00;99.90;;;;;;4980968;28;20237;-70
2023/01/02 04:05:44;;;;;;;4.67;3.00;;;13.00;99.90;;;;;;4985060;28;20225;-70
2023/01/02 04:08:17;;;;;;;4.83;2.90;;;12.90;99.90;;;;;;4985660;28;20285;-70
2023/01/02 04:10:47;;;;;;;4.43;3.13;;;12.90;99.90;;;;;;4986169;28;20203;-70
2023/01/02 04:13:18;;;;;;;3.70;3.00;;;12.80;99.90;;;;;;4985823;28;20297;-70
2023/01/02 04:15:47;;;;;;;4.77;3.13;;;12.80;99.90;;;;;;4985981;28;20213;-70
2023/01/02 04:18:22;;;;;;;3.80;3.40;;;12.80;99.90;;;;;;4986113;28;20228;-70
2023/01/02 04:20:53;;;;;;;4.53;3.30;;;12.80;99.90;;;;;;4970525;28;20202;-70
2023/01/02 04:23:28;;;;;;;4.30;3.20;;;12.80;99.90;;;;;;4987547;28;20652;-70
2023/01/02 04:25:59;;;;;;;3.70;2.97;;;12.80;99.90;;;;;;4991265;28;20222;-70
2023/01/02 04:28:28;;;;;;;3.50;3.20;;;12.80;99.90;;;;;;4991397;28;20221;-70
2023/01/02 04:31:01;;;;;;;3.27;3.07;;;12.80;99.90;;;;;;4991280;28;20213;-70
2023/01/02 04:33:31;;;;;;;3.57;3.27;;;12.70;99.90;;;;;;4990936;28;20198;-70
2023/01/02 04:36:06;;;;;;;5.67;3.10;;;12.70;99.90;;;;;;4991127;28;20205;-70
2023/01/02 04:38:33;;;;;;;5.90;3.57;;;12.70;99.90;;;;;;4990936;28;20198;-70
2023/01/02 04:41:00;;;;;;;4.67;3.00;;;12.70;99.90;;;;;;4990961;28;20309;-70
2023/01/02 04:43:27;;;;;;;3.97;3.57;;;12.70;99.90;;;;;;4991034;28;20775;-70
2023/01/02 04:45:54;;;;;;;7.03;3.57;;;12.60;99.90;;;;;;4990615;28;20716;-70
2023/01/02 04:48:20;;;;;;;3.20;2.90;;;12.70;99.90;;;;;;4990705;28;20210;-70
2023/01/02 04:50:49;;;;;;;5.13;3.60;;;12.60;99.90;;;;;;4990705;28;20249;-70
2023/01/02 04:53:16;;;;;;;5.83;3.40;;;12.70;99.90;;;;;;4990526;28;20316;-70
2023/01/02 04:55:43;;;;;;;3.50;3.30;;;12.60;99.90;;;;;;4990669;28;20303;-70
2023/01/02 04:58:10;;;;;;;6.13;3.40;;;12.60;99.90;;;;;;4990380;28;20712;-69
2023/01/02 05:00:37;;;;;;;4.40;3.50;;;12.60;99.90;;;;;;4990668;28;20216;-69
2023/01/02 05:03:04;;;;;;;4.50;3.40;;;12.60;99.90;;;;;;4989933;28;20304;-69
2023/01/02 05:05:31;;;;;;;5.10;3.50;;;12.60;99.90;;;;;;4990586;28;20324;-70
2023/01/02 05:08:00;;;;;;;4.67;3.23;;;12.60;99.90;;;;;;4990491;28;20293;-70
2023/01/02 05:10:26;;;;;;;3.73;3.27;;;12.60;99.90;;;;;;4990517;28;20301;-70
2023/01/02 05:12:53;;;;;;;4.60;2.80;;;12.60;99.90;;;;;;4990480;28;20242;-69
2023/01/02 05:15:20;;;;;;;4.10;3.70;;;12.60;99.90;;;;;;4987447;28;20269;-70
2023/01/02 05:17:47;;;;;;;3.50;3.20;;;12.60;99.90;;;;;;4970577;28;20298;-70
2023/01/02 05:20:14;;;;;;;5.37;3.30;;;12.60;99.90;;;;;;4982195;28;20240;-69
2023/01/02 05:25:28;;;;;;;3.73;3.43;;;12.60;99.90;;;;;;4989979;28;20236;-69
2023/01/02 05:27:55;;;;;;;7.50;4.10;;;12.60;99.90;;;;;;4990188;28;20220;-70
2023/01/02 05:30:22;;;;;;;3.97;3.23;;;12.60;99.90;;;;;;4989726;28;20304;-70
2023/01/02 05:32:49;;;;;;;4.60;2.97;;;12.60;99.90;;;;;;4989940;28;20302;-69
2023/01/02 05:35:16;;;;;;;3.20;3.00;;;12.60;99.90;;;;;;4989629;28;20225;-69
2023/01/02 05:37:43;;;;;;;4.23;3.13;;;12.60;99.90;;;;;;4990223;28;20213;-69
2023/01/02 05:40:11;;;;;;;3.97;3.10;;;12.60;99.90;;;;;;4989908;28;20240;-69
2023/01/02 05:42:39;;;;;;;3.43;3.23;;;12.60;99.90;;;;;;4989941;28;20586;-69
2023/01/02 05:45:08;;;;;;;4.40;3.17;;;12.60;99.90;;;;;;4989372;28;20669;-70
2023/01/02 05:47:35;;;;;;;3.50;3.20;;;12.60;99.90;;;;;;4989534;28;20297;-70
2023/01/02 05:50:01;;;;;;;4.30;3.13;;;12.60;99.90;;;;;;4989673;28;20305;-70
2023/01/02 05:52:28;;;;;;;5.00;2.70;;;12.60;99.90;;;;;;4989500;28;20290;-69
2023/01/02 05:54:55;;;;;;;3.37;2.90;;;12.60;99.90;;;;;;4989511;28;20260;-70
2023/01/02 05:57:22;;;;;;;5.10;2.93;;;12.60;99.90;;;;;;4989327;28;20287;-70
2023/01/02 05:59:50;;;;;;;3.90;3.00;;;12.60;99.90;;;;;;4989668;28;20301;-70
2023/01/02 06:02:17;;;;;;;4.77;3.07;;;12.60;99.90;;;;;;4989161;28;20305;-69
2023/01/02 06:04:44;;;;;;;3.20;2.90;;;12.60;99.90;;;;;;4970585;28;20237;-70
2023/01/02 06:07:11;;;;;;;4.17;3.00;;;12.60;99.90;;;;;;4974021;28;20234;-70
2023/01/02 06:09:38;;;;;;;3.23;3.03;;;12.60;99.90;;;;;;4989464;28;20202;-70
2023/01/02 06:12:05;;;;;;;5.70;3.00;;;12.60;99.90;;;;;;4989425;28;20301;-70
2023/01/02 06:14:32;;;;;;;3.60;3.07;;;12.60;99.90;;;;;;4988825;28;20678;-70
2023/01/02 06:17:00;;;;;;;3.33;2.80;;;12.60;99.90;;;;;;4988775;28;20305;-70
2023/01/02 06:19:27;;;;;;;4.90;3.10;;;12.60;99.90;;;;;;4989012;28;20288;-70
2023/01/02 06:21:54;;;;;;;4.70;3.30;;;12.70;99.90;;;;;;4989078;28;20262;-70
2023/01/02 06:24:21;;;;;;;3.60;3.07;;;12.70;99.90;;;;;;4989172;28;20258;-70
2023/01/02 06:26:47;;;;;;;3.63;3.27;;;12.70;99.90;;;;;;4988836;28;20234;-70
2023/01/02 06:29:15;;;;;;;3.27;2.73;;;12.60;99.90;;;;;;4988605;28;20600;-70
2023/01/02 06:31:42;;;;;;;5.63;2.93;;;12.60;99.90;;;;;;4988933;28;20214;-70
2023/01/02 06:34:10;;;;;;;3.40;3.10;;;12.70;99.90;;;;;;4988424;28;20288;-70
2023/01/02 06:36:37;;;;;;;3.23;3.03;;;12.70;99.90;;;;;;4988853;28;20301;-70
2023/01/02 06:39:04;;;;;;;2.80;2.60;;;12.70;99.90;;;;;;4988627;28;20301;-70
2023/01/02 06:41:32;;;;;;;3.30;3.00;;;12.60;99.90;;;;;;4988988;28;20285;-70
2023/01/02 06:43:58;;;;;;;3.23;2.93;;;12.60;99.90;;;;;;4987998;28;20333;-70
2023/01/02 06:46:25;;;;;;;3.20;2.90;;;12.70;99.90;;;;;;4988779;28;20240;-70
2023/01/02 06:48:52;;;;;;;5.00;2.83;;;12.70;99.90;;;;;;4987924;28;20309;-70
2023/01/02 06:51:22;;;;;;;3.27;2.73;;;12.70;99.90;;;;;;4988369;28;20218;-69
2023/01/02 06:53:50;;;;;;;3.67;2.97;;;12.70;99.90;;;;;;4988492;28;20269;-70
2023/01/02 06:56:18;;;;;;;3.17;2.97;;;12.70;99.90;;;;;;4978782;28;20746;-70
2023/01/02 06:58:45;;;;;;;3.30;2.90;;;12.70;99.90;;;;;;4968874;28;20215;-70
2023/01/02 07:01:15;;;;;;;4.50;2.60;;;12.70;99.90;;;;;;4969001;28;20210;-70
2023/01/02 07:03:42;;;;;;;3.97;2.67;;;12.70;99.90;;;;;;4975274;28;20214;-69
2023/01/02 07:06:11;;;;;;;3.03;2.67;;;12.70;99.90;;;;;;4987939;28;20248;-69
2023/01/02 07:08:40;;;;;;;6.23;3.00;;;12.70;99.90;;;;;;4988458;28;20212;-69
2023/01/02 07:11:10;;;;;;;4.77;2.70;;;12.70;99.90;;;;;;4988019;28;20214;-70
2023/01/02 07:13:37;;;;;;;4.03;2.70;;;12.80;99.90;;;;;;4988142;28;20321;-70
2023/01/02 07:16:05;;;;;;;2.80;2.50;;;12.80;99.90;;;;;;4987935;28;20661;-69
2023/01/02 07:18:32;;;;;;;3.03;2.70;;;12.80;99.90;;;;;;4987826;28;20746;-69
2023/01/02 07:20:59;;;;;;;2.73;2.47;;;12.80;99.90;;;;;;4988038;28;20293;-69
2023/01/02 07:23:26;;;;;;;4.00;2.40;;;12.80;99.90;;;;;;4988224;28;20289;-69
2023/01/02 07:25:58;;;;;;;3.90;2.70;;;12.80;99.90;;;;;;4988295;28;20317;-69
2023/01/02 07:28:25;;;;;;;3.73;2.50;;;12.80;99.90;;;;;;4988117;28;20556;-69
2023/01/02 07:30:55;;;;;;;2.90;2.60;;;12.80;99.90;;;;;;4988247;28;20305;-69
2023/01/02 07:33:22;;;;;;;4.57;2.93;;;12.80;99.90;;;;;;4987230;28;20241;-70
2023/01/02 07:35:49;;;;;;;3.43;2.97;;;12.80;99.90;;;;;;4988249;28;20240;-70
2023/01/02 07:38:16;;;;;;;4.80;3.00;;;12.90;99.90;;;;;;4988116;28;20284;-69
2023/01/02 07:40:43;;;;;;;5.17;2.90;;;12.90;99.90;;;;;;4988127;28;20289;-70
2023/01/02 07:43:11;;;;;;;4.00;2.20;;;12.90;99.90;;;;;;4987982;28;20309;-70
2023/01/02 07:45:38;;;;;;;4.23;2.30;;;13.00;99.90;;;;;;4984547;28;20213;-70
2023/01/02 07:48:05;;;;;;;3.47;2.53;;;13.10;99.90;;;;;;4987762;28;20238;-69
2023/01/02 07:50:32;;;;;;;2.60;2.37;;;13.10;99.90;;;;;;4987893;28;20695;-70
2023/01/02 07:52:59;;;;;;;3.50;2.33;;;13.10;99.90;;;;;;4987754;28;20229;-69
2023/01/02 07:55:25;;;;;;;2.90;2.47;;;13.10;99.90;;;;;;4985341;28;20305;-69
2023/01/02 07:57:52;;;;;;;3.63;2.30;;;13.20;99.90;;;;;;4972382;28;20241;-70
2023/01/02 08:00:21;;;;;;;3.37;2.20;;;13.20;99.90;;;;;;4981593;28;20703;-70
2023/01/02 08:02:48;;;;;;;3.60;2.20;;;13.20;99.90;;;;;;4991301;28;20688;-70
2023/01/02 08:05:16;;;;;;;3.93;2.57;;;13.30;99.90;;;;;;4991783;28;20206;-69
2023/01/02 08:07:43;;;;;;;2.63;2.13;;;13.20;99.90;;;;;;4991838;28;20325;-69
2023/01/02 08:10:10;;;;;;;3.17;1.90;;;13.20;99.90;;;;;;4991300;28;20618;-70
2023/01/02 08:12:37;;;;;;;3.37;2.20;;;13.30;99.90;;;;;;4991788;28;20296;-70
2023/01/02 08:15:05;;;;;;;4.33;2.20;;;13.20;99.90;;;;;;4989638;28;20320;-70
2023/01/02 08:17:33;;;;;;;3.77;2.33;;;13.30;99.90;;;;;;4989384;28;20218;-70
2023/01/02 08:20:00;;;;;;;3.80;2.20;;;13.30;99.90;;;;;;4989685;28;20301;-70
2023/01/02 08:22:27;;;;;;;4.23;2.60;;;13.30;99.90;;;;;;4989682;28;20305;-70
2023/01/02 08:24:53;;;;;;;2.87;2.30;;;13.30;99.90;;;;;;4989958;28;20233;-69
2023/01/02 08:27:20;;;;;;;2.63;2.43;;;13.30;99.90;;;;;;4990213;28;20257;-69
2023/01/02 08:29:47;;;;;;;2.43;2.13;;;13.30;99.90;;;;;;4990155;28;20202;-70
2023/01/02 08:32:14;;;;;;;2.33;2.13;;;13.30;99.90;;;;;;4989872;28;20293;-70
2023/01/02 08:34:42;;;;;;;6.73;2.23;;;13.40;99.90;;;;;;4990077;28;20245;-70
2023/01/02 08:37:09;;;;;;;3.97;2.23;;;13.50;99.90;;;;;;4989939;28;20301;-69
2023/01/02 08:39:36;;;;;;;2.33;2.13;;;13.50;99.90;;;;;;4989623;28;20246;-70
2023/01/02 08:42:04;;;;;;;2.47;2.27;;;13.50;99.90;;;;;;4989622;28;20248;-70
2023/01/02 08:44:30;;;;;;;3.30;2.33;;;13.50;99.90;;;;;;4989489;28;20302;-69
2023/01/02 08:46:57;;;;;;;3.13;1.80;;;13.50;99.90;;;;;;4989946;28;20234;-70
2023/01/02 08:49:24;;;;;;;3.30;2.17;;;13.50;99.90;;;;;;4989313;28;20863;-70
2023/01/02 08:51:53;;;;;;;3.47;2.60;;;13.50;99.90;;;;;;4989671;28;20656;-69
2023/01/02 08:54:19;;;;;;;2.20;2.00;;;13.50;99.90;;;;;;4989394;28;20260;-70
2023/01/02 08:56:48;;;;;;;5.00;2.50;;;13.50;99.90;;;;;;4989086;28;20277;-70
2023/01/02 08:59:15;;;;;;;3.30;2.33;;;13.50;99.90;;;;;;4989548;28;20296;-70
2023/01/02 09:01:42;;;;;;;5.50;2.20;;;13.50;99.90;;;;;;4989610;28;20293;-70
2023/01/02 09:04:10;;;;;;;3.97;2.60;;;13.60;99.90;;;;;;4989212;28;20217;-70
2023/01/02 09:06:37;;;;;;;3.33;2.40;;;13.80;99.90;;;;;;4988961;28;20627;-70
2023/01/02 09:09:06;;;;;;;5.07;2.50;;;13.80;99.90;;;;;;4989316;28;20206;-70
2023/01/02 09:11:35;;;;;;;2.83;2.63;;;14.00;99.90;;;;;;4989414;28;20265;-70
2023/01/02 09:14:04;;;;;;;3.93;2.27;;;14.10;99.90;;;;;;4950741;28;1122582;-70
2023/01/02 09:16:31;;;;;;;3.47;2.27;;;14.20;99.90;;;;;;4990057;28;20241;-70
2023/01/02 09:19:02;;;;;;;3.67;2.10;;;14.10;99.90;;;;;;4989893;28;20217;-70
2023/01/02 09:21:29;;;;;;;4.10;1.97;;;14.20;99.90;;;;;;4990369;28;20302;-70
2023/01/02 09:23:56;;;;;;;5.47;2.20;;;14.20;99.90;;;;;;4990319;28;20297;-70
2023/01/02 09:26:25;;;;;;;4.03;2.40;;;14.20;99.90;;;;;;4989635;28;20751;-70
2023/01/02 09:28:52;;;;;;;4.00;2.03;;;14.20;99.90;;;;;;4989914;28;20588;-70
2023/01/02 09:31:19;;;;;;;4.53;2.60;;;14.20;99.90;;;;;;4990059;28;20674;-70
2023/01/02 09:33:47;;;;;;;3.27;2.67;;;14.20;99.90;;;;;;4990023;28;20245;-70
2023/01/02 09:36:16;;;;;;;6.40;2.07;;;14.20;99.90;;;;;;4989611;28;20301;-70
2023/01/02 09:38:43;;;;;;;2.60;2.00;;;14.10;99.90;;;;;;4977224;28;20207;-70
2023/01/02 09:41:25;;;;;;;4.43;2.10;;;14.20;99.90;;;;;;4970236;28;20254;-70
2023/01/02 09:43:59;;;;;;;2.57;1.90;;;14.20;99.90;;;;;;4970562;28;20201;-70
2023/01/02 09:46:34;;;;;;;8.17;2.10;;;14.20;99.90;;;;;;4981293;28;20735;-70
2023/01/02 09:49:02;;;;;;;3.03;2.53;;;14.20;99.90;;;;;;4989465;28;20272;-70
2023/01/02 09:51:30;;;;;;;4.13;2.00;;;14.20;99.90;;;;;;4989777;28;20368;-70
2023/01/02 09:53:57;;;;;;;2.77;2.00;;;14.20;99.90;;;;;;4989166;28;20246;-70
2023/01/02 09:56:29;;;;;;;3.43;1.73;;;14.20;99.90;;;;;;4989840;28;20306;-70
2023/01/02 09:59:01;;;;;;;6.50;2.57;;;14.10;99.90;;;;;;4989385;28;20198;-69
2023/01/02 10:01:42;;;;;;;2.87;2.17;;;14.30;99.90;;;;;;4989554;28;20203;-70
2023/01/02 10:04:22;;;;;;;2.33;2.07;;;14.50;99.90;;;;;;4989579;28;20277;-70
2023/01/02 10:06:57;;;;;;;2.50;2.10;;;14.50;99.90;;;;;;4989029;28;20300;-70
2023/01/02 10:09:30;;;;;;;4.40;2.00;;;14.50;99.90;;;;;;4989254;28;20292;-70
2023/01/02 10:12:05;;;;;;;3.03;2.00;;;14.50;99.90;;;;;;4989605;28;20229;-70
2023/01/02 10:14:47;;;;;;;4.57;2.33;;;14.50;99.90;;;;;;4988993;28;20643;-70
2023/01/02 10:17:16;;;;;;;3.03;2.33;;;14.50;99.90;;;;;;4989225;28;20311;-70
2023/01/02 10:19:50;;;;;;;4.23;1.77;;;14.60;99.90;;;;;;4988386;28;20249;-70
2023/01/02 10:22:21;;;;;;;2.83;1.90;;;14.60;99.90;;;;;;4988916;28;20313;-70
2023/01/02 10:24:55;;;;;;;4.90;2.10;;;14.70;99.90;;;;;;4989275;28;20281;-70
2023/01/02 10:27:27;;;;;;;4.00;1.97;;;14.70;99.90;;;;;;4989278;28;20217;-70
2023/01/02 10:30:04;;;;;;;5.37;2.13;;;14.80;99.90;;;;;;4988946;28;20317;-70
2023/01/02 10:32:32;;;;;;;3.70;2.10;;;14.90;99.90;;;;;;4988992;28;20197;-70
2023/01/02 10:35:11;;;;;;;2.63;2.10;;;14.90;99.90;;;;;;4976298;28;20264;-70
2023/01/02 10:37:38;;;;;;;3.27;2.20;;;14.90;99.90;;;;;;4969569;28;20671;-70
2023/01/02 10:40:05;;;;;;;4.00;1.90;;;14.80;99.90;;;;;;4969131;28;20756;-70
2023/01/02 10:42:33;;;;;;;3.43;2.03;;;14.80;99.90;;;;;;4969758;28;20206;-70
2023/01/02 10:45:02;;;;;;;5.30;2.10;;;14.80;99.90;;;;;;4968994;28;20697;-70
2023/01/02 10:47:34;;;;;;;4.07;2.23;;;14.90;99.90;;;;;;4969145;28;20764;-70
2023/01/02 10:50:01;;;;;;;2.20;2.00;;;15.00;99.90;;;;;;4985765;28;20313;-70
2023/01/02 10:52:33;;;;;;;4.37;2.30;;;15.00;99.90;;;;;;4988844;28;20639;-70
2023/01/02 10:55:00;;;;;;;2.63;1.70;;;15.00;99.90;;;;;;4988194;28;20634;-70
2023/01/02 10:57:38;;;;;;;4.80;2.03;;;15.00;99.90;;;;;;4988419;28;20234;-70
2023/01/02 11:00:23;;;;;;;3.63;2.10;;;15.00;99.90;;;;;;4988200;28;20289;-70
2023/01/02 11:02:52;;;;;;;5.17;2.23;;;14.90;99.90;;;;;;4988173;28;20194;-70
2023/01/02 11:05:21;;;;;;;2.80;1.77;;;14.90;99.90;;;;;;4987990;28;20220;-70
2023/01/02 11:07:50;;;;;;;2.30;2.10;;;14.90;99.90;;;;;;4988319;28;20230;-70
2023/01/02 11:10:24;;;;;;;2.87;1.80;;;14.90;99.90;;;;;;4988344;28;20315;-70
2023/01/02 11:12:51;;;;;;;6.30;1.90;;;14.90;99.90;;;;;;4988261;28;20677;-70
2023/01/02 11:15:25;;;;;;;3.10;1.80;;;14.90;99.90;;;;;;4987929;28;20240;-70
2023/01/02 11:17:52;;;;;;;4.07;2.03;;;14.90;99.90;;;;;;4988257;28;20288;-70
2023/01/02 11:20:24;;;;;;;5.53;2.57;;;14.90;99.90;;;;;;4988150;28;20637;-70
2023/01/02 11:22:54;;;;;;;7.97;2.20;;;14.80;99.90;;;;;;4988068;28;20579;-70
2023/01/02 11:25:24;;;;;;;2.30;1.80;;;14.80;99.90;;;;;;4987813;28;20210;-70
2023/01/02 11:27:52;;;;;;;2.40;2.00;;;14.70;99.90;;;;;;4988095;28;20329;-70
2023/01/02 11:30:42;;;;;;;3.17;1.87;;;14.70;99.90;;;;;;4987700;28;20285;-70
2023/01/02 11:33:20;;;;;;;6.70;2.27;;;14.70;99.90;;;;;;5005185;28;20248;-70
2023/01/02 11:35:49;;;;;;;3.73;2.00;;;14.70;99.90;;;;;;5007965;28;20288;-70
2023/01/02 11:38:18;;;;;;;2.57;1.93;;;14.70;99.90;;;;;;5007693;28;20252;-70
2023/01/02 11:40:55;;;;;;;4.00;2.17;;;14.70;99.90;;;;;;5007580;28;20209;-70
2023/01/02 11:46:27;;;;;;;3.03;2.00;;;14.70;99.90;;;;;;4990580;28;20221;-70
2023/01/02 11:49:07;;;;;;;2.13;1.87;;;14.70;99.90;;;;;;4987617;28;20233;-70
2023/01/02 11:51:37;;;;;;;3.83;1.93;;;14.60;99.90;;;;;;4987486;28;20653;-70
2023/01/02 11:54:12;;;;;;;3.80;2.40;;;14.70;99.90;;;;;;4987755;28;20317;-70
2023/01/02 11:56:42;;;;;;;3.57;2.17;;;14.70;99.90;;;;;;4987712;28;20198;-69
2023/01/02 11:59:14;;;;;;;2.07;1.90;;;14.70;99.90;;;;;;4987678;28;20296;-70
2023/01/02 12:01:52;;;;;;;3.90;2.20;;;14.70;99.90;;;;;;4987897;28;20286;-70
2023/01/02 12:04:19;;;;;;;5.37;2.03;;;14.80;99.90;;;;;;4987713;28;20204;-70
2023/01/02 12:07:08;;;;;;;4.17;1.90;;;14.80;99.90;;;;;;4987594;28;20541;-70
2023/01/02 12:09:47;;;;;;;3.73;1.90;;;14.80;99.90;;;;;;4983924;28;20305;-70
2023/01/02 12:12:26;;;;;;;3.10;2.00;;;14.80;99.90;;;;;;4987692;28;20297;-70
2023/01/02 12:15:17;;;;;;;3.03;2.07;;;14.80;99.90;;;;;;4987225;28;20317;-69
2023/01/02 12:17:53;;;;;;;9.40;2.47;;;14.80;99.90;;;;;;4983491;28;20372;-70
2023/01/02 12:20:40;;;;;;;3.00;1.97;;;14.80;99.90;;;;;;4987657;28;20284;-70
2023/01/02 12:23:30;;;;;;;5.63;2.13;;;14.80;99.90;;;;;;4987362;28;20214;-70
2023/01/02 12:26:05;;;;;;;5.50;2.30;;;14.80;99.90;;;;;;4986883;28;20230;-70
2023/01/02 12:29:01;;;;;;;2.60;2.07;;;14.80;99.90;;;;;;4968235;28;20688;-70
2023/01/02 12:31:48;;;;;;;5.33;2.20;;;14.90;99.90;;;;;;4968400;28;20206;-69
2023/01/02 12:34:27;;;;;;;4.17;2.67;;;15.00;99.90;;;;;;4967734;28;20202;-70
2023/01/02 12:37:04;;;;;;;7.93;5.03;;;15.00;99.90;;;;;;4967974;28;20234;-70
2023/01/02 12:40:00;;;;;;;9.17;5.13;;;15.00;99.90;;;;;;4967905;28;20289;-70
2023/01/02 12:42:53;;;;;;;9.17;3.97;;;15.00;99.90;;;;;;4981568;28;20220;-70
2023/01/02 12:45:29;;;;;;;6.30;3.60;;;15.00;99.90;;;;;;4990925;28;21108;-70
2023/01/02 12:48:10;;;;;;;9.07;4.03;;;14.90;99.90;;;;;;4990530;28;20778;-70
2023/01/02 12:51:10;;;;;;;6.43;3.63;;;15.00;99.90;;;;;;4976256;28;20229;-70
2023/01/02 12:54:05;;;;;;;10.87;5.63;;;14.90;99.90;;;;;;4970972;28;20238;-70
2023/01/02 12:56:40;;;;;;;8.83;3.83;;;14.90;99.90;;;;;;4982724;28;20302;-70
2023/01/02 12:59:25;;;;;;;7.83;4.10;;;15.00;99.90;;;;;;4990425;28;20716;-70
2023/01/02 13:01:59;;;;;;;11.17;5.87;;;14.90;99.90;;;;;;4990940;28;20201;-70
2023/01/02 13:04:31;;;;;;;4.43;2.90;;;15.00;99.90;;;;;;4990312;28;20317;-70
2023/01/02 13:07:02;;;;;;;6.60;3.63;;;15.00;99.90;;;;;;4990925;28;20191;-70
2023/01/02 13:09:35;;;;;;;6.47;3.80;;;15.00;99.90;;;;;;4990662;28;20202;-70